sensor_id;sensor_type;location;lat;lon;timestamp;P1;durP1;ratioP1;P2;durP2;ratioP2
13731;SDS011;6937;56.096;12.664;2023-04-15T00:01:23;17.13;;;15.40;;
13731;SDS011;6937;56.096;12.664;2023-04-15T00:03:52;17.15;;;15.45;;
13731;SDS011;6937;56.096;12.664;2023-04-15T00:06:18;16.77;;;15.07;;
13731;SDS011;6937;56.096;12.664;2023-04-15T00:08:47;16.75;;;15.05;;
13731;SDS011;6937;56.096;12.664;2023-04-15T00:11:13;17.27;;;15.35;;
13731;SDS011;6937;56.096;12.664;2023-04-15T00:13:39;16.50;;;14.77;;
13731;SDS011;6937;56.096;12.664;2023-04-15T00:16:05;16.70;;;15.02;;
13731;SDS011;6937;56.096;12.664;2023-04-15T00:18:32;16.48;;;14.18;;
13731;SDS011;6937;56.096;12.664;2023-04-15T00:20:57;16.48;;;14.43;;
13731;SDS011;6937;56.096;12.664;2023-04-15T00:23:23;16.30;;;14.57;;
13731;SDS011;6937;56.096;12.664;2023-04-15T00:25:49;16.17;;;14.63;;
13731;SDS011;6937;56.096;12.664;2023-04-15T00:28:15;15.88;;;14.25;;
13731;SDS011;6937;56.096;12.664;2023-04-15T00:30:40;16.58;;;14.38;;
13731;SDS011;6937;56.096;12.664;2023-04-15T00:33:06;15.15;;;13.75;;
13731;SDS011;6937;56.096;12.664;2023-04-15T00:35:31;17.65;;;14.48;;
13731;SDS011;6937;56.096;12.664;2023-04-15T00:37:57;15.80;;;14.40;;
13731;SDS011;6937;56.096;12.664;2023-04-15T00:40:23;15.73;;;14.20;;
13731;SDS011;6937;56.096;12.664;2023-04-15T00:42:50;15.35;;;14.00;;
13731;SDS011;6937;56.096;12.664;2023-04-15T00:45:16;15.68;;;14.07;;
13731;SDS011;6937;56.096;12.664;2023-04-15T00:47:42;15.93;;;14.32;;
13731;SDS011;6937;56.096;12.664;2023-04-15T00:50:08;14.80;;;13.23;;
13731;SDS011;6937;56.096;12.664;2023-04-15T00:52:34;16.13;;;14.52;;
13731;SDS011;6937;56.096;12.664;2023-04-15T00:55:00;15.52;;;14.02;;
13731;SDS011;6937;56.096;12.664;2023-04-15T00:57:26;14.55;;;13.13;;
13731;SDS011;6937;56.096;12.664;2023-04-15T00:59:53;15.75;;;14.25;;
13731;SDS011;6937;56.096;12.664;2023-04-15T01:02:20;15.40;;;13.88;;
13731;SDS011;6937;56.096;12.664;2023-04-15T01:04:45;14.63;;;13.10;;
13731;SDS011;6937;56.096;12.664;2023-04-15T01:07:11;15.32;;;13.65;;
13731;SDS011;6937;56.096;12.664;2023-04-15T01:09:37;15.63;;;14.02;;
13731;SDS011;6937;56.096;12.664;2023-04-15T01:12:03;14.07;;;12.60;;
13731;SDS011;6937;56.096;12.664;2023-04-15T01:14:29;14.80;;;13.45;;
13731;SDS011;6937;56.096;12.664;2023-04-15T01:16:54;15.05;;;13.55;;
13731;SDS011;6937;56.096;12.664;2023-04-15T01:19:20;14.02;;;12.73;;
13731;SDS011;6937;56.096;12.664;2023-04-15T01:21:46;14.18;;;12.65;;
13731;SDS011;6937;56.096;12.664;2023-04-15T01:24:11;14.18;;;12.75;;
13731;SDS011;6937;56.096;12.664;2023-04-15T01:26:37;14.57;;;13.18;;
13731;SDS011;6937;56.096;12.664;2023-04-15T01:29:04;14.75;;;13.25;;
13731;SDS011;6937;56.096;12.664;2023-04-15T01:31:30;14.32;;;12.80;;
13731;SDS011;6937;56.096;12.664;2023-04-15T01:33:57;14.40;;;13.00;;
13731;SDS011;6937;56.096;12.664;2023-04-15T01:36:22;14.35;;;12.85;;
13731;SDS011;6937;56.096;12.664;2023-04-15T01:38:48;14.27;;;12.88;;
13731;SDS011;6937;56.096;12.664;2023-04-15T01:41:13;13.88;;;12.48;;
13731;SDS011;6937;56.096;12.664;2023-04-15T01:43:38;13.77;;;12.40;;
13731;SDS011;6937;56.096;12.664;2023-04-15T01:46:04;13.77;;;12.48;;
13731;SDS011;6937;56.096;12.664;2023-04-15T01:48:30;14.45;;;13.05;;
13731;SDS011;6937;56.096;12.664;2023-04-15T01:50:56;14.55;;;13.00;;
13731;SDS011;6937;56.096;12.664;2023-04-15T01:53:23;13.88;;;12.60;;
13731;SDS011;6937;56.096;12.664;2023-04-15T01:55:49;14.48;;;13.07;;
13731;SDS011;6937;56.096;12.664;2023-04-15T01:58:16;14.10;;;12.70;;
13731;SDS011;6937;56.096;12.664;2023-04-15T02:00:42;13.48;;;12.27;;
13731;SDS011;6937;56.096;12.664;2023-04-15T02:03:07;13.55;;;12.07;;
13731;SDS011;6937;56.096;12.664;2023-04-15T02:05:33;13.55;;;12.27;;
13731;SDS011;6937;56.096;12.664;2023-04-15T02:07:59;13.80;;;12.35;;
13731;SDS011;6937;56.096;12.664;2023-04-15T02:10:25;13.70;;;12.45;;
13731;SDS011;6937;56.096;12.664;2023-04-15T02:12:51;13.07;;;11.88;;
13731;SDS011;6937;56.096;12.664;2023-04-15T02:15:16;13.15;;;11.95;;
13731;SDS011;6937;56.096;12.664;2023-04-15T02:17:42;13.13;;;11.90;;
13731;SDS011;6937;56.096;12.664;2023-04-15T02:20:10;13.75;;;12.35;;
13731;SDS011;6937;56.096;12.664;2023-04-15T02:22:36;13.32;;;11.95;;
13731;SDS011;6937;56.096;12.664;2023-04-15T02:25:01;13.68;;;12.20;;
13731;SDS011;6937;56.096;12.664;2023-04-15T02:27:27;13.38;;;12.13;;
13731;SDS011;6937;56.096;12.664;2023-04-15T02:29:53;13.38;;;12.02;;
13731;SDS011;6937;56.096;12.664;2023-04-15T02:32:18;13.30;;;12.02;;
13731;SDS011;6937;56.096;12.664;2023-04-15T02:34:44;12.93;;;11.70;;
13731;SDS011;6937;56.096;12.664;2023-04-15T02:37:11;14.10;;;12.63;;
13731;SDS011;6937;56.096;12.664;2023-04-15T02:39:36;13.45;;;12.18;;
13731;SDS011;6937;56.096;12.664;2023-04-15T02:42:02;13.00;;;11.80;;
13731;SDS011;6937;56.096;12.664;2023-04-15T02:44:30;13.35;;;12.15;;
13731;SDS011;6937;56.096;12.664;2023-04-15T02:46:56;13.35;;;12.13;;
13731;SDS011;6937;56.096;12.664;2023-04-15T02:49:23;13.23;;;12.02;;
13731;SDS011;6937;56.096;12.664;2023-04-15T02:51:49;13.73;;;11.85;;
13731;SDS011;6937;56.096;12.664;2023-04-15T02:54:18;13.80;;;12.35;;
13731;SDS011;6937;56.096;12.664;2023-04-15T02:56:44;13.50;;;12.20;;
13731;SDS011;6937;56.096;12.664;2023-04-15T02:59:11;13.93;;;12.63;;
13731;SDS011;6937;56.096;12.664;2023-04-15T03:01:36;13.85;;;12.52;;
13731;SDS011;6937;56.096;12.664;2023-04-15T03:04:02;14.40;;;13.07;;
13731;SDS011;6937;56.096;12.664;2023-04-15T03:06:27;13.80;;;12.38;;
13731;SDS011;6937;56.096;12.664;2023-04-15T03:08:53;14.35;;;13.05;;
13731;SDS011;6937;56.096;12.664;2023-04-15T03:11:18;12.70;;;11.40;;
13731;SDS011;6937;56.096;12.664;2023-04-15T03:13:44;13.35;;;12.15;;
13731;SDS011;6937;56.096;12.664;2023-04-15T03:16:09;13.20;;;12.00;;
13731;SDS011;6937;56.096;12.664;2023-04-15T03:18:35;13.43;;;12.23;;
13731;SDS011;6937;56.096;12.664;2023-04-15T03:21:00;12.98;;;11.73;;
13731;SDS011;6937;56.096;12.664;2023-04-15T03:23:26;13.82;;;11.95;;
13731;SDS011;6937;56.096;12.664;2023-04-15T03:25:52;13.90;;;12.52;;
13731;SDS011;6937;56.096;12.664;2023-04-15T03:28:20;13.07;;;11.88;;
13731;SDS011;6937;56.096;12.664;2023-04-15T03:30:45;13.55;;;12.35;;
13731;SDS011;6937;56.096;12.664;2023-04-15T03:33:10;13.27;;;11.90;;
13731;SDS011;6937;56.096;12.664;2023-04-15T03:35:36;13.05;;;11.75;;
13731;SDS011;6937;56.096;12.664;2023-04-15T03:38:01;13.32;;;12.13;;
13731;SDS011;6937;56.096;12.664;2023-04-15T03:40:27;12.57;;;11.38;;
13731;SDS011;6937;56.096;12.664;2023-04-15T03:42:52;13.15;;;11.95;;
13731;SDS011;6937;56.096;12.664;2023-04-15T03:45:18;13.43;;;12.10;;
13731;SDS011;6937;56.096;12.664;2023-04-15T03:47:43;12.98;;;11.85;;
13731;SDS011;6937;56.096;12.664;2023-04-15T03:50:08;12.77;;;11.68;;
13731;SDS011;6937;56.096;12.664;2023-04-15T03:52:34;13.32;;;12.00;;
13731;SDS011;6937;56.096;12.664;2023-04-15T03:54:59;13.25;;;12.00;;
13731;SDS011;6937;56.096;12.664;2023-04-15T03:57:25;14.57;;;12.65;;
13731;SDS011;6937;56.096;12.664;2023-04-15T03:59:51;13.18;;;11.88;;
13731;SDS011;6937;56.096;12.664;2023-04-15T04:02:16;13.73;;;12.43;;
13731;SDS011;6937;56.096;12.664;2023-04-15T04:04:41;13.63;;;12.30;;
13731;SDS011;6937;56.096;12.664;2023-04-15T04:07:07;13.35;;;12.07;;
13731;SDS011;6937;56.096;12.664;2023-04-15T04:09:33;13.98;;;12.52;;
13731;SDS011;6937;56.096;12.664;2023-04-15T04:11:58;14.50;;;13.15;;
13731;SDS011;6937;56.096;12.664;2023-04-15T04:14:23;13.90;;;12.52;;
13731;SDS011;6937;56.096;12.664;2023-04-15T04:16:53;14.07;;;12.68;;
13731;SDS011;6937;56.096;12.664;2023-04-15T04:19:19;14.30;;;12.90;;
13731;SDS011;6937;56.096;12.664;2023-04-15T04:21:44;13.68;;;12.32;;
13731;SDS011;6937;56.096;12.664;2023-04-15T04:24:10;14.90;;;13.30;;
13731;SDS011;6937;56.096;12.664;2023-04-15T04:26:36;16.05;;;13.73;;
13731;SDS011;6937;56.096;12.664;2023-04-15T04:29:01;14.52;;;13.23;;
13731;SDS011;6937;56.096;12.664;2023-04-15T04:31:26;14.25;;;12.88;;
13731;SDS011;6937;56.096;12.664;2023-04-15T04:33:52;14.73;;;13.23;;
13731;SDS011;6937;56.096;12.664;2023-04-15T04:36:17;14.23;;;12.88;;
13731;SDS011;6937;56.096;12.664;2023-04-15T04:38:43;14.77;;;13.27;;
13731;SDS011;6937;56.096;12.664;2023-04-15T04:41:08;14.70;;;13.27;;
13731;SDS011;6937;56.096;12.664;2023-04-15T04:43:33;15.82;;;14.23;;
13731;SDS011;6937;56.096;12.664;2023-04-15T04:45:58;15.90;;;14.40;;
13731;SDS011;6937;56.096;12.664;2023-04-15T04:48:24;15.27;;;13.80;;
13731;SDS011;6937;56.096;12.664;2023-04-15T04:50:50;14.85;;;13.45;;
13731;SDS011;6937;56.096;12.664;2023-04-15T04:53:15;14.48;;;13.15;;
13731;SDS011;6937;56.096;12.664;2023-04-15T04:55:42;15.95;;;14.40;;
13731;SDS011;6937;56.096;12.664;2023-04-15T04:58:07;15.82;;;14.23;;
13731;SDS011;6937;56.096;12.664;2023-04-15T05:00:32;16.15;;;14.60;;
13731;SDS011;6937;56.096;12.664;2023-04-15T05:02:58;15.30;;;13.90;;
13731;SDS011;6937;56.096;12.664;2023-04-15T05:05:23;16.33;;;14.70;;
13731;SDS011;6937;56.096;12.664;2023-04-15T05:07:49;16.30;;;14.75;;
13731;SDS011;6937;56.096;12.664;2023-04-15T05:10:14;17.00;;;15.30;;
13731;SDS011;6937;56.096;12.664;2023-04-15T05:12:41;16.52;;;14.77;;
13731;SDS011;6937;56.096;12.664;2023-04-15T05:15:07;16.30;;;14.70;;
13731;SDS011;6937;56.096;12.664;2023-04-15T05:17:32;15.50;;;14.00;;
13731;SDS011;6937;56.096;12.664;2023-04-15T05:19:59;17.15;;;15.45;;
13731;SDS011;6937;56.096;12.664;2023-04-15T05:22:25;18.48;;;16.75;;
13731;SDS011;6937;56.096;12.664;2023-04-15T05:24:51;17.00;;;15.23;;
13731;SDS011;6937;56.096;12.664;2023-04-15T05:27:16;16.38;;;14.77;;
13731;SDS011;6937;56.096;12.664;2023-04-15T05:29:43;17.40;;;15.80;;
13731;SDS011;6937;56.096;12.664;2023-04-15T05:32:08;17.20;;;15.50;;
13731;SDS011;6937;56.096;12.664;2023-04-15T05:34:34;17.02;;;15.32;;
13731;SDS011;6937;56.096;12.664;2023-04-15T05:36:59;16.30;;;14.80;;
13731;SDS011;6937;56.096;12.664;2023-04-15T05:39:25;17.33;;;15.70;;
13731;SDS011;6937;56.096;12.664;2023-04-15T05:41:50;18.05;;;16.23;;
13731;SDS011;6937;56.096;12.664;2023-04-15T05:44:16;18.63;;;16.73;;
13731;SDS011;6937;56.096;12.664;2023-04-15T05:46:41;18.80;;;16.90;;
13731;SDS011;6937;56.096;12.664;2023-04-15T05:49:07;16.98;;;15.38;;
13731;SDS011;6937;56.096;12.664;2023-04-15T05:51:32;18.02;;;16.33;;
13731;SDS011;6937;56.096;12.664;2023-04-15T05:53:58;18.73;;;17.05;;
13731;SDS011;6937;56.096;12.664;2023-04-15T05:56:23;17.45;;;15.75;;
13731;SDS011;6937;56.096;12.664;2023-04-15T05:58:50;18.27;;;16.55;;
13731;SDS011;6937;56.096;12.664;2023-04-15T06:01:16;18.10;;;16.20;;
13731;SDS011;6937;56.096;12.664;2023-04-15T06:03:41;18.35;;;16.65;;
13731;SDS011;6937;56.096;12.664;2023-04-15T06:06:07;17.25;;;15.68;;
13731;SDS011;6937;56.096;12.664;2023-04-15T06:08:33;17.55;;;15.88;;
13731;SDS011;6937;56.096;12.664;2023-04-15T06:10:59;17.98;;;16.08;;
13731;SDS011;6937;56.096;12.664;2023-04-15T06:13:25;17.25;;;15.65;;
13731;SDS011;6937;56.096;12.664;2023-04-15T06:15:51;16.75;;;15.23;;
13731;SDS011;6937;56.096;12.664;2023-04-15T06:18:16;17.20;;;15.65;;
13731;SDS011;6937;56.096;12.664;2023-04-15T06:20:41;16.33;;;14.70;;
13731;SDS011;6937;56.096;12.664;2023-04-15T06:23:07;16.10;;;14.70;;
13731;SDS011;6937;56.096;12.664;2023-04-15T06:25:32;17.38;;;15.70;;
13731;SDS011;6937;56.096;12.664;2023-04-15T06:27:58;16.58;;;14.98;;
13731;SDS011;6937;56.096;12.664;2023-04-15T06:30:23;17.02;;;15.32;;
13731;SDS011;6937;56.096;12.664;2023-04-15T06:32:48;16.60;;;15.05;;
13731;SDS011;6937;56.096;12.664;2023-04-15T06:35:14;16.83;;;15.23;;
13731;SDS011;6937;56.096;12.664;2023-04-15T06:37:40;16.83;;;15.13;;
13731;SDS011;6937;56.096;12.664;2023-04-15T06:40:05;16.38;;;14.77;;
13731;SDS011;6937;56.096;12.664;2023-04-15T06:42:32;16.23;;;14.63;;
13731;SDS011;6937;56.096;12.664;2023-04-15T06:44:58;15.80;;;14.40;;
13731;SDS011;6937;56.096;12.664;2023-04-15T06:47:23;16.02;;;14.52;;
13731;SDS011;6937;56.096;12.664;2023-04-15T06:49:49;16.17;;;14.68;;
13731;SDS011;6937;56.096;12.664;2023-04-15T06:52:14;15.85;;;14.27;;
13731;SDS011;6937;56.096;12.664;2023-04-15T06:54:40;15.43;;;13.93;;
13731;SDS011;6937;56.096;12.664;2023-04-15T06:57:06;14.82;;;13.43;;
13731;SDS011;6937;56.096;12.664;2023-04-15T06:59:33;15.02;;;13.63;;
13731;SDS011;6937;56.096;12.664;2023-04-15T07:01:58;14.85;;;13.52;;
13731;SDS011;6937;56.096;12.664;2023-04-15T07:04:23;14.93;;;13.48;;
13731;SDS011;6937;56.096;12.664;2023-04-15T07:06:49;14.43;;;13.13;;
13731;SDS011;6937;56.096;12.664;2023-04-15T07:09:14;15.23;;;13.73;;
13731;SDS011;6937;56.096;12.664;2023-04-15T07:11:40;14.88;;;13.48;;
13731;SDS011;6937;56.096;12.664;2023-04-15T07:14:06;14.95;;;13.45;;
13731;SDS011;6937;56.096;12.664;2023-04-15T07:19:35;14.80;;;13.40;;
13731;SDS011;6937;56.096;12.664;2023-04-15T07:22:01;13.90;;;12.60;;
13731;SDS011;6937;56.096;12.664;2023-04-15T07:24:26;13.85;;;12.55;;
13731;SDS011;6937;56.096;12.664;2023-04-15T07:26:52;12.80;;;11.70;;
13731;SDS011;6937;56.096;12.664;2023-04-15T07:29:20;14.13;;;12.82;;
13731;SDS011;6937;56.096;12.664;2023-04-15T07:31:45;14.20;;;12.82;;
13731;SDS011;6937;56.096;12.664;2023-04-15T07:34:10;13.10;;;11.80;;
13731;SDS011;6937;56.096;12.664;2023-04-15T07:36:36;14.23;;;12.85;;
13731;SDS011;6937;56.096;12.664;2023-04-15T07:39:01;13.75;;;12.55;;
13731;SDS011;6937;56.096;12.664;2023-04-15T07:41:28;14.52;;;13.00;;
13731;SDS011;6937;56.096;12.664;2023-04-15T07:43:54;12.90;;;11.70;;
13731;SDS011;6937;56.096;12.664;2023-04-15T07:46:19;13.30;;;12.00;;
13731;SDS011;6937;56.096;12.664;2023-04-15T07:48:45;13.02;;;11.77;;
13731;SDS011;6937;56.096;12.664;2023-04-15T07:51:11;13.32;;;11.93;;
13731;SDS011;6937;56.096;12.664;2023-04-15T07:53:36;12.57;;;11.40;;
13731;SDS011;6937;56.096;12.664;2023-04-15T07:56:02;12.48;;;11.38;;
13731;SDS011;6937;56.096;12.664;2023-04-15T07:58:27;13.18;;;11.90;;
13731;SDS011;6937;56.096;12.664;2023-04-15T08:00:53;12.10;;;10.98;;
13731;SDS011;6937;56.096;12.664;2023-04-15T08:03:20;12.05;;;10.90;;
13731;SDS011;6937;56.096;12.664;2023-04-15T08:05:46;12.30;;;11.20;;
13731;SDS011;6937;56.096;12.664;2023-04-15T08:08:11;13.18;;;11.93;;
13731;SDS011;6937;56.096;12.664;2023-04-15T08:10:37;12.45;;;11.25;;
13731;SDS011;6937;56.096;12.664;2023-04-15T08:13:03;12.38;;;11.05;;
13731;SDS011;6937;56.096;12.664;2023-04-15T08:15:28;12.40;;;11.23;;
13731;SDS011;6937;56.096;12.664;2023-04-15T08:17:53;12.13;;;11.02;;
13731;SDS011;6937;56.096;12.664;2023-04-15T08:20:19;11.25;;;10.15;;
13731;SDS011;6937;56.096;12.664;2023-04-15T08:22:44;11.93;;;10.82;;
13731;SDS011;6937;56.096;12.664;2023-04-15T08:25:11;11.25;;;10.15;;
13731;SDS011;6937;56.096;12.664;2023-04-15T08:27:37;11.73;;;10.50;;
13731;SDS011;6937;56.096;12.664;2023-04-15T08:30:02;11.48;;;10.43;;
13731;SDS011;6937;56.096;12.664;2023-04-15T08:32:28;11.50;;;10.50;;
13731;SDS011;6937;56.096;12.664;2023-04-15T08:34:55;10.15;;;8.93;;
13731;SDS011;6937;56.096;12.664;2023-04-15T08:37:20;11.63;;;10.52;;
13731;SDS011;6937;56.096;12.664;2023-04-15T08:39:46;10.60;;;9.60;;
13731;SDS011;6937;56.096;12.664;2023-04-15T08:42:15;10.25;;;9.27;;
13731;SDS011;6937;56.096;12.664;2023-04-15T08:44:43;10.68;;;9.57;;
13731;SDS011;6937;56.096;12.664;2023-04-15T08:47:11;10.95;;;9.85;;
13731;SDS011;6937;56.096;12.664;2023-04-15T08:49:39;10.93;;;9.90;;
13731;SDS011;6937;56.096;12.664;2023-04-15T08:52:07;10.77;;;9.77;;
13731;SDS011;6937;56.096;12.664;2023-04-15T08:54:34;9.48;;;8.68;;
13731;SDS011;6937;56.096;12.664;2023-04-15T08:57:00;9.15;;;8.35;;
13731;SDS011;6937;56.096;12.664;2023-04-15T08:59:26;10.02;;;9.02;;
13731;SDS011;6937;56.096;12.664;2023-04-15T09:01:54;10.23;;;9.18;;
13731;SDS011;6937;56.096;12.664;2023-04-15T09:04:21;9.90;;;8.95;;
13731;SDS011;6937;56.096;12.664;2023-04-15T09:06:46;11.00;;;9.05;;
13731;SDS011;6937;56.096;12.664;2023-04-15T09:09:12;10.98;;;9.88;;
13731;SDS011;6937;56.096;12.664;2023-04-15T09:11:38;9.40;;;8.60;;
13731;SDS011;6937;56.096;12.664;2023-04-15T09:14:04;11.68;;;10.30;;
13731;SDS011;6937;56.096;12.664;2023-04-15T09:16:29;9.80;;;9.00;;
13731;SDS011;6937;56.096;12.664;2023-04-15T09:18:55;9.98;;;8.98;;
13731;SDS011;6937;56.096;12.664;2023-04-15T09:21:21;9.73;;;8.88;;
13731;SDS011;6937;56.096;12.664;2023-04-15T09:23:54;8.85;;;8.10;;
13731;SDS011;6937;56.096;12.664;2023-04-15T09:26:33;8.68;;;7.88;;
13731;SDS011;6937;56.096;12.664;2023-04-15T09:29:06;9.35;;;8.27;;
13731;SDS011;6937;56.096;12.664;2023-04-15T09:31:34;10.88;;;8.30;;
13731;SDS011;6937;56.096;12.664;2023-04-15T09:34:02;8.27;;;7.45;;
13731;SDS011;6937;56.096;12.664;2023-04-15T09:36:28;8.32;;;7.53;;
13731;SDS011;6937;56.096;12.664;2023-04-15T09:38:56;8.18;;;7.47;;
13731;SDS011;6937;56.096;12.664;2023-04-15T09:41:23;8.10;;;7.30;;
13731;SDS011;6937;56.096;12.664;2023-04-15T09:43:49;7.50;;;6.90;;
13731;SDS011;6937;56.096;12.664;2023-04-15T09:46:15;8.02;;;7.22;;
13731;SDS011;6937;56.096;12.664;2023-04-15T09:48:40;7.38;;;6.68;;
13731;SDS011;6937;56.096;12.664;2023-04-15T09:51:06;7.43;;;6.75;;
13731;SDS011;6937;56.096;12.664;2023-04-15T09:53:32;7.70;;;7.05;;
13731;SDS011;6937;56.096;12.664;2023-04-15T09:55:59;7.88;;;6.95;;
13731;SDS011;6937;56.096;12.664;2023-04-15T09:58:27;8.00;;;7.03;;
13731;SDS011;6937;56.096;12.664;2023-04-15T10:00:56;7.60;;;6.72;;
13731;SDS011;6937;56.096;12.664;2023-04-15T10:03:23;7.97;;;6.65;;
13731;SDS011;6937;56.096;12.664;2023-04-15T10:05:51;7.35;;;6.65;;
13731;SDS011;6937;56.096;12.664;2023-04-15T10:08:18;7.63;;;6.93;;
13731;SDS011;6937;56.096;12.664;2023-04-15T10:10:46;8.10;;;7.35;;
13731;SDS011;6937;56.096;12.664;2023-04-15T10:13:13;8.80;;;7.90;;
13731;SDS011;6937;56.096;12.664;2023-04-15T10:15:42;7.88;;;6.97;;
13731;SDS011;6937;56.096;12.664;2023-04-15T10:18:11;7.72;;;6.85;;
13731;SDS011;6937;56.096;12.664;2023-04-15T10:20:41;7.88;;;7.10;;
13731;SDS011;6937;56.096;12.664;2023-04-15T10:23:08;8.40;;;7.18;;
13731;SDS011;6937;56.096;12.664;2023-04-15T10:25:33;7.85;;;7.13;;
13731;SDS011;6937;56.096;12.664;2023-04-15T10:28:00;8.40;;;7.57;;
13731;SDS011;6937;56.096;12.664;2023-04-15T10:30:26;8.27;;;7.53;;
13731;SDS011;6937;56.096;12.664;2023-04-15T10:32:52;9.50;;;7.78;;
13731;SDS011;6937;56.096;12.664;2023-04-15T10:35:20;8.75;;;7.95;;
13731;SDS011;6937;56.096;12.664;2023-04-15T10:37:47;9.18;;;7.80;;
13731;SDS011;6937;56.096;12.664;2023-04-15T10:40:33;8.70;;;7.90;;
13731;SDS011;6937;56.096;12.664;2023-04-15T10:42:59;8.00;;;7.30;;
13731;SDS011;6937;56.096;12.664;2023-04-15T10:45:26;8.68;;;7.57;;
13731;SDS011;6937;56.096;12.664;2023-04-15T10:47:56;9.15;;;8.25;;
13731;SDS011;6937;56.096;12.664;2023-04-15T10:50:24;8.95;;;7.50;;
13731;SDS011;6937;56.096;12.664;2023-04-15T10:52:50;8.27;;;7.47;;
13731;SDS011;6937;56.096;12.664;2023-04-15T10:55:20;7.75;;;7.03;;
13731;SDS011;6937;56.096;12.664;2023-04-15T10:57:51;10.43;;;7.47;;
13731;SDS011;6937;56.096;12.664;2023-04-15T11:00:18;9.73;;;7.57;;
13731;SDS011;6937;56.096;12.664;2023-04-15T11:02:52;8.98;;;7.30;;
13731;SDS011;6937;56.096;12.664;2023-04-15T11:05:21;10.13;;;7.25;;
13731;SDS011;6937;56.096;12.664;2023-04-15T11:08:10;8.32;;;6.72;;
13731;SDS011;6937;56.096;12.664;2023-04-15T11:13:02;7.63;;;6.93;;
13731;SDS011;6937;56.096;12.664;2023-04-15T11:15:53;7.55;;;6.80;;
13731;SDS011;6937;56.096;12.664;2023-04-15T11:18:21;9.23;;;7.03;;
13731;SDS011;6937;56.096;12.664;2023-04-15T11:20:52;9.48;;;6.78;;
13731;SDS011;6937;56.096;12.664;2023-04-15T11:26:06;8.60;;;6.60;;
13731;SDS011;6937;56.096;12.664;2023-04-15T11:28:34;7.53;;;6.75;;
13731;SDS011;6937;56.096;12.664;2023-04-15T11:31:07;7.78;;;7.05;;
13731;SDS011;6937;56.096;12.664;2023-04-15T11:33:37;8.05;;;7.25;;
13731;SDS011;6937;56.096;12.664;2023-04-15T11:36:09;8.27;;;7.47;;
13731;SDS011;6937;56.096;12.664;2023-04-15T11:38:34;8.43;;;7.32;;
13731;SDS011;6937;56.096;12.664;2023-04-15T11:41:00;8.55;;;7.18;;
13731;SDS011;6937;56.096;12.664;2023-04-15T11:43:25;8.10;;;6.82;;
13731;SDS011;6937;56.096;12.664;2023-04-15T11:45:54;7.68;;;6.97;;
13731;SDS011;6937;56.096;12.664;2023-04-15T11:48:25;7.80;;;7.00;;
13731;SDS011;6937;56.096;12.664;2023-04-15T11:50:54;8.10;;;6.95;;
13731;SDS011;6937;56.096;12.664;2023-04-15T11:53:38;8.25;;;7.43;;
13731;SDS011;6937;56.096;12.664;2023-04-15T11:56:05;8.20;;;7.40;;
13731;SDS011;6937;56.096;12.664;2023-04-15T11:58:32;7.10;;;6.40;;
13731;SDS011;6937;56.096;12.664;2023-04-15T12:00:59;8.13;;;7.32;;
13731;SDS011;6937;56.096;12.664;2023-04-15T12:03:26;7.57;;;6.88;;
13731;SDS011;6937;56.096;12.664;2023-04-15T12:22:09;6.78;;;6.13;;
13731;SDS011;6937;56.096;12.664;2023-04-15T12:24:35;10.52;;;6.60;;
13731;SDS011;6937;56.096;12.664;2023-04-15T12:27:03;6.85;;;6.20;;
13731;SDS011;6937;56.096;12.664;2023-04-15T12:29:30;7.90;;;7.10;;
13731;SDS011;6937;56.096;12.664;2023-04-15T12:31:56;9.05;;;7.18;;
13731;SDS011;6937;56.096;12.664;2023-04-15T12:34:26;9.35;;;7.70;;
13731;SDS011;6937;56.096;12.664;2023-04-15T12:36:52;7.63;;;6.78;;
13731;SDS011;6937;56.096;12.664;2023-04-15T12:39:20;12.70;;;7.68;;
13731;SDS011;6937;56.096;12.664;2023-04-15T12:41:49;8.55;;;7.65;;
13731;SDS011;6937;56.096;12.664;2023-04-15T12:44:15;9.50;;;7.30;;
13731;SDS011;6937;56.096;12.664;2023-04-15T12:46:40;8.68;;;7.78;;
13731;SDS011;6937;56.096;12.664;2023-04-15T12:49:06;8.18;;;7.38;;
13731;SDS011;6937;56.096;12.664;2023-04-15T12:51:32;9.07;;;7.88;;
13731;SDS011;6937;56.096;12.664;2023-04-15T12:53:57;8.23;;;7.38;;
13731;SDS011;6937;56.096;12.664;2023-04-15T12:56:23;8.48;;;7.68;;
13731;SDS011;6937;56.096;12.664;2023-04-15T12:58:48;9.38;;;8.00;;
13731;SDS011;6937;56.096;12.664;2023-04-15T13:01:14;8.57;;;7.65;;
13731;SDS011;6937;56.096;12.664;2023-04-15T13:03:39;8.70;;;7.35;;
13731;SDS011;6937;56.096;12.664;2023-04-15T13:06:05;8.10;;;7.30;;
13731;SDS011;6937;56.096;12.664;2023-04-15T13:08:30;7.80;;;7.10;;
13731;SDS011;6937;56.096;12.664;2023-04-15T13:10:56;7.75;;;7.05;;
13731;SDS011;6937;56.096;12.664;2023-04-15T13:13:21;9.77;;;7.38;;
13731;SDS011;6937;56.096;12.664;2023-04-15T13:15:47;9.32;;;7.57;;
13731;SDS011;6937;56.096;12.664;2023-04-15T13:18:12;7.90;;;7.20;;
13731;SDS011;6937;56.096;12.664;2023-04-15T13:20:38;9.00;;;7.07;;
13731;SDS011;6937;56.096;12.664;2023-04-15T13:23:03;7.80;;;6.50;;
13731;SDS011;6937;56.096;12.664;2023-04-15T13:25:28;8.25;;;7.00;;
13731;SDS011;6937;56.096;12.664;2023-04-15T13:27:54;8.07;;;7.15;;
13731;SDS011;6937;56.096;12.664;2023-04-15T13:30:19;10.05;;;7.28;;
13731;SDS011;6937;56.096;12.664;2023-04-15T13:32:45;8.63;;;7.22;;
13731;SDS011;6937;56.096;12.664;2023-04-15T13:35:10;8.10;;;7.30;;
13731;SDS011;6937;56.096;12.664;2023-04-15T13:37:35;11.52;;;7.28;;
13731;SDS011;6937;56.096;12.664;2023-04-15T13:40:01;11.48;;;7.85;;
13731;SDS011;6937;56.096;12.664;2023-04-15T13:42:27;9.85;;;7.78;;
13731;SDS011;6937;56.096;12.664;2023-04-15T13:44:52;7.88;;;7.18;;
13731;SDS011;6937;56.096;12.664;2023-04-15T13:47:18;8.90;;;8.00;;
13731;SDS011;6937;56.096;12.664;2023-04-15T13:49:43;8.45;;;7.65;;
13731;SDS011;6937;56.096;12.664;2023-04-15T13:52:09;10.73;;;8.35;;
13731;SDS011;6937;56.096;12.664;2023-04-15T13:54:35;9.32;;;8.02;;
13731;SDS011;6937;56.096;12.664;2023-04-15T13:57:01;10.75;;;8.60;;
13731;SDS011;6937;56.096;12.664;2023-04-15T13:59:26;9.38;;;8.20;;
13731;SDS011;6937;56.096;12.664;2023-04-15T14:01:52;10.18;;;8.13;;
13731;SDS011;6937;56.096;12.664;2023-04-15T14:04:17;8.68;;;7.88;;
13731;SDS011;6937;56.096;12.664;2023-04-15T14:06:43;8.32;;;7.57;;
13731;SDS011;6937;56.096;12.664;2023-04-15T14:09:08;9.10;;;8.20;;
13731;SDS011;6937;56.096;12.664;2023-04-15T14:11:34;8.80;;;7.90;;
13731;SDS011;6937;56.096;12.664;2023-04-15T14:14:00;9.10;;;8.20;;
13731;SDS011;6937;56.096;12.664;2023-04-15T14:16:26;9.15;;;7.32;;
13731;SDS011;6937;56.096;12.664;2023-04-15T14:18:51;10.73;;;8.13;;
13731;SDS011;6937;56.096;12.664;2023-04-15T14:21:17;8.18;;;7.38;;
13731;SDS011;6937;56.096;12.664;2023-04-15T14:23:43;8.15;;;7.30;;
13731;SDS011;6937;56.096;12.664;2023-04-15T14:26:08;7.88;;;7.13;;
13731;SDS011;6937;56.096;12.664;2023-04-15T14:28:33;7.88;;;7.07;;
13731;SDS011;6937;56.096;12.664;2023-04-15T14:30:59;8.05;;;7.25;;
13731;SDS011;6937;56.096;12.664;2023-04-15T14:33:25;8.32;;;7.38;;
13731;SDS011;6937;56.096;12.664;2023-04-15T14:35:50;7.45;;;6.75;;
13731;SDS011;6937;56.096;12.664;2023-04-15T14:38:16;7.93;;;7.13;;
13731;SDS011;6937;56.096;12.664;2023-04-15T14:40:41;7.88;;;7.18;;
13731;SDS011;6937;56.096;12.664;2023-04-15T14:43:07;8.52;;;6.90;;
13731;SDS011;6937;56.096;12.664;2023-04-15T14:45:32;7.57;;;6.70;;
13731;SDS011;6937;56.096;12.664;2023-04-15T14:47:58;8.25;;;6.35;;
13731;SDS011;6937;56.096;12.664;2023-04-15T14:50:24;7.28;;;6.60;;